createdAt,value
2018-05-26T00:09:10.261Z,3.33
2018-05-26T00:20:05.337Z,3.33
2018-05-26T00:31:09.088Z,3.33
2018-05-26T00:42:12.256Z,3.32
2018-05-26T00:53:11.080Z,3.32
2018-05-26T01:04:14.113Z,3.32
2018-05-26T01:15:01.016Z,3.32
2018-05-26T01:26:02.582Z,3.31
2018-05-26T01:37:00.621Z,3.31
2018-05-26T01:48:04.271Z,3.31
2018-05-26T01:59:06.724Z,3.31
2018-05-26T02:10:07.460Z,3.30
2018-05-26T02:21:05.000Z,3.30
2018-05-26T02:32:08.824Z,3.30
2018-05-26T02:43:05.563Z,3.30
2018-05-26T02:54:03.120Z,3.30
2018-05-26T03:05:01.300Z,3.30
2018-05-26T03:16:03.665Z,3.29
2018-05-26T03:27:04.456Z,3.29
2018-05-26T03:38:05.305Z,3.29
2018-05-26T03:49:04.336Z,3.29
2018-05-26T04:00:00.716Z,3.29
2018-05-26T04:11:00.331Z,3.29
2018-05-26T04:22:08.934Z,3.28
2018-05-26T04:33:08.154Z,3.30
2018-05-26T04:44:07.664Z,3.30
2018-05-26T04:55:06.541Z,3.30
2018-05-26T05:06:08.888Z,3.31
2018-05-26T05:17:12.415Z,3.31
2018-05-26T05:28:12.139Z,3.32
2018-05-26T05:39:15.997Z,3.32
2018-05-26T05:50:17.882Z,3.33
2018-05-26T06:01:17.773Z,3.33
2018-05-26T06:12:20.303Z,3.34
2018-05-26T06:23:16.335Z,3.34
2018-05-26T06:34:12.637Z,3.35
2018-05-26T06:45:12.603Z,3.36
2018-05-26T06:56:05.228Z,3.36
2018-05-26T07:07:00.392Z,3.37
2018-05-26T07:17:51.851Z,3.37
2018-05-26T07:28:46.225Z,3.39
2018-05-26T07:39:45.919Z,3.39
2018-05-26T07:50:42.988Z,3.39
2018-05-26T08:01:43.624Z,3.40
2018-05-26T08:12:45.826Z,3.41
2018-05-26T08:23:43.943Z,3.42
2018-05-26T08:34:46.149Z,3.43
2018-05-26T08:45:41.269Z,3.44
2018-05-26T08:56:44.810Z,3.45
2018-05-26T09:07:48.904Z,3.43
2018-05-26T09:18:26.314Z,3.43
2018-05-26T09:29:21.678Z,3.41
2018-05-26T09:40:20.111Z,3.42
2018-05-26T09:51:17.266Z,3.41
2018-05-26T10:02:20.498Z,3.41
2018-05-26T10:13:24.748Z,3.42
2018-05-26T10:24:21.744Z,3.42
2018-05-26T10:35:25.613Z,3.41
2018-05-26T10:46:28.729Z,3.41
2018-05-26T10:57:27.276Z,3.40
2018-05-26T11:08:31.165Z,3.40
2018-05-26T11:19:32.578Z,3.40
2018-05-26T11:30:37.388Z,3.43
2018-05-26T11:41:37.653Z,3.42
2018-05-26T11:52:37.799Z,3.42
2018-05-26T12:03:36.445Z,3.41
2018-05-26T12:14:39.229Z,3.41
2018-05-26T12:25:38.924Z,3.40
2018-05-26T12:36:42.312Z,3.40
2018-05-26T12:47:45.019Z,3.40
2018-05-26T12:58:47.261Z,3.42
2018-05-26T13:09:42.923Z,3.42
2018-05-26T13:20:43.710Z,3.41
2018-05-26T13:31:43.667Z,3.40
2018-05-26T13:42:46.822Z,3.41
2018-05-26T13:53:29.935Z,3.41
2018-05-26T14:04:18.928Z,3.41
2018-05-26T14:15:02.826Z,3.40
2018-05-26T14:26:09.232Z,3.41
2018-05-26T14:36:48.724Z,3.40
2018-05-26T14:47:32.349Z,3.40
2018-05-26T14:58:20.833Z,3.40
2018-05-26T15:09:01.928Z,3.40
2018-05-26T15:19:47.992Z,3.43
2018-05-26T15:30:51.872Z,3.42
2018-05-26T15:41:51.273Z,3.42
2018-05-26T15:52:51.582Z,3.41
2018-05-26T16:03:52.050Z,3.40
2018-05-26T16:14:54.564Z,3.40
2018-05-26T16:25:52.264Z,3.44
2018-05-26T16:36:55.480Z,3.45
2018-05-26T16:47:54.140Z,3.45
2018-05-26T16:58:53.337Z,3.46
2018-05-26T17:09:50.548Z,3.46
2018-05-26T17:20:47.907Z,3.46
2018-05-26T17:31:44.944Z,3.45
2018-05-26T17:42:47.876Z,3.45
2018-05-26T17:53:48.605Z,3.44
2018-05-26T18:04:46.858Z,3.44
2018-05-26T18:15:43.796Z,3.43
2018-05-26T18:26:43.444Z,3.43
2018-05-26T18:37:42.312Z,3.42
2018-05-26T18:48:40.580Z,3.42
2018-05-26T18:59:37.323Z,3.41
2018-05-26T19:10:30.304Z,3.41
2018-05-26T19:21:33.279Z,3.40
2018-05-26T19:32:33.793Z,3.40
2018-05-26T19:43:35.671Z,3.40
2018-05-26T19:54:33.216Z,3.39
2018-05-26T20:05:34.151Z,3.39
2018-05-26T20:16:30.951Z,3.39
2018-05-26T20:27:32.561Z,3.39
2018-05-26T20:38:31.364Z,3.39
2018-05-26T20:49:28.305Z,3.38
2018-05-26T21:00:29.572Z,3.38
2018-05-26T21:11:31.495Z,3.38
2018-05-26T21:22:33.962Z,3.37
2018-05-26T21:33:33.217Z,3.37
2018-05-26T21:44:35.243Z,3.37
2018-05-26T21:55:37.052Z,3.37
2018-05-26T22:06:38.965Z,3.37
2018-05-26T22:17:40.580Z,3.36
2018-05-26T22:28:38.539Z,3.36
2018-05-26T22:39:41.729Z,3.36
2018-05-26T22:50:44.757Z,3.36
2018-05-26T23:01:47.030Z,3.36
2018-05-26T23:12:44.676Z,3.36
2018-05-26T23:23:47.516Z,3.35
2018-05-26T23:34:48.768Z,3.35
2018-05-26T23:45:49.913Z,3.34
2018-05-26T23:56:50.439Z,3.34
